EWG29H LEMG-EDDL
Flight info
| Callsign | EWG29H |
|---|---|
| Flight time | N/A |
| Altitude | 34000 |
| Route | BLN N865 VTB DCT RBO DCT OSTIX DCT GASMO/N0451F360 DCT DGO L176 LUSEM DCT LULUT DCT ADABI DCT BOKNO DCT DIBES DCT VIQAQ DCT TSU DCT OQQAL DCT RANUX/N0450F370 DCT VALEK DCT LUTAX DCT DIK/N0393F230 N853 ARCKY T853 NVO T857 BIKMU BIKMU1A |
| Aircraft | A320/M-SDE3FGHIRWY/LB1 |
Departure
| Time | N/A |
|---|---|
| Airport | Málaga-Costa del Sol Airport (LEMG) |
Arrival
| Time | 2026-05-06 19:35 |
|---|---|
| Airport | Düsseldorf Airport (EDDL) |
| Time | Latitude | Longitude | Altitude | Speed | Heading |
|---|---|---|---|---|---|
| 2026-05-06 17:06 | 37.72113 | -3.78903 | 23872 ft | 486 kts | 14° |
| 2026-05-06 17:06 | 37.75358 | -3.77674 | 23988 ft | 489 kts | 14° |
| 2026-05-06 17:06 | 37.78631 | -3.76432 | 24105 ft | 493 kts | 13° |
| 2026-05-06 17:07 | 37.81933 | -3.75178 | 24222 ft | 496 kts | 13° |
| 2026-05-06 17:07 | 37.85249 | -3.73920 | 24347 ft | 498 kts | 13° |
| 2026-05-06 17:07 | 37.88574 | -3.72661 | 24515 ft | 499 kts | 13° |
| 2026-05-06 17:07 | 37.91890 | -3.71404 | 24815 ft | 496 kts | 13° |
| 2026-05-06 17:08 | 37.95192 | -3.70148 | 25071 ft | 495 kts | 13° |
| 2026-05-06 17:08 | 37.98506 | -3.68886 | 25200 ft | 497 kts | 13° |
| 2026-05-06 17:08 | 38.01824 | -3.67622 | 25326 ft | 499 kts | 13° |
| 2026-05-06 17:08 | 38.05115 | -3.66363 | 25446 ft | 500 kts | 13° |
| 2026-05-06 17:09 | 38.08454 | -3.65084 | 25574 ft | 501 kts | 13° |
| 2026-05-06 17:09 | 38.11796 | -3.63802 | 25692 ft | 502 kts | 13° |
| 2026-05-06 17:09 | 38.15171 | -3.62645 | 25835 ft | 500 kts | 7° |
| 2026-05-06 17:09 | 38.18609 | -3.62130 | 25960 ft | 497 kts | 0° |
| 2026-05-06 17:10 | 38.22054 | -3.61799 | 26082 ft | 497 kts | 0° |
| 2026-05-06 17:10 | 38.25512 | -3.61470 | 26213 ft | 498 kts | 0° |
| 2026-05-06 17:10 | 38.28969 | -3.61144 | 26335 ft | 498 kts | 0° |
| 2026-05-06 17:10 | 38.32430 | -3.60817 | 26459 ft | 499 kts | 0° |
| 2026-05-06 17:11 | 38.35856 | -3.60491 | 26592 ft | 499 kts | 0° |
| 2026-05-06 17:11 | 38.39323 | -3.60158 | 26720 ft | 500 kts | 0° |
| 2026-05-06 17:11 | 38.42789 | -3.59821 | 26850 ft | 500 kts | 0° |
| 2026-05-06 17:11 | 38.46264 | -3.59483 | 26979 ft | 500 kts | 360° |
| 2026-05-06 17:12 | 38.49737 | -3.59144 | 27106 ft | 500 kts | 360° |
| 2026-05-06 17:12 | 38.53205 | -3.58805 | 27235 ft | 501 kts | 360° |
| 2026-05-06 17:12 | 38.56681 | -3.58467 | 27365 ft | 501 kts | 360° |
| 2026-05-06 17:12 | 38.60161 | -3.58129 | 27510 ft | 501 kts | 360° |
| 2026-05-06 17:13 | 38.63634 | -3.57791 | 27653 ft | 501 kts | 360° |
| 2026-05-06 17:13 | 38.67108 | -3.57450 | 27785 ft | 501 kts | 360° |
| 2026-05-06 17:13 | 38.70587 | -3.57110 | 27918 ft | 501 kts | 360° |
| 2026-05-06 17:13 | 38.74062 | -3.56772 | 28055 ft | 501 kts | 360° |
| 2026-05-06 17:14 | 38.77542 | -3.56431 | 28192 ft | 501 kts | 360° |
| 2026-05-06 17:14 | 38.81019 | -3.56088 | 28327 ft | 501 kts | 360° |
| 2026-05-06 17:14 | 38.84496 | -3.55744 | 28482 ft | 501 kts | 360° |
| 2026-05-06 17:14 | 38.87971 | -3.55400 | 28618 ft | 501 kts | 360° |
| 2026-05-06 17:15 | 38.91444 | -3.55054 | 28760 ft | 500 kts | 360° |
| 2026-05-06 17:15 | 38.94913 | -3.54713 | 28897 ft | 500 kts | 360° |
| 2026-05-06 17:15 | 38.98382 | -3.54372 | 29040 ft | 499 kts | 360° |
| 2026-05-06 17:15 | 39.01840 | -3.54032 | 29179 ft | 499 kts | 360° |
| 2026-05-06 17:16 | 39.05255 | -3.53697 | 29319 ft | 499 kts | 360° |
| 2026-05-06 17:16 | 39.08720 | -3.53358 | 29479 ft | 499 kts | 360° |
| 2026-05-06 17:16 | 39.12176 | -3.53016 | 29620 ft | 498 kts | 360° |
| 2026-05-06 17:16 | 39.15633 | -3.52671 | 29764 ft | 498 kts | 360° |
| 2026-05-06 17:17 | 39.19087 | -3.52325 | 29911 ft | 497 kts | 360° |
| 2026-05-06 17:17 | 39.22537 | -3.51978 | 30039 ft | 497 kts | 360° |
| 2026-05-06 17:17 | 39.25984 | -3.51632 | 30162 ft | 497 kts | 359° |
| 2026-05-06 17:17 | 39.29433 | -3.51288 | 30284 ft | 497 kts | 359° |
| 2026-05-06 17:18 | 39.32875 | -3.50946 | 30424 ft | 495 kts | 0° |
| 2026-05-06 17:18 | 39.36312 | -3.50603 | 30547 ft | 494 kts | 0° |
| 2026-05-06 17:18 | 39.39736 | -3.50260 | 30674 ft | 494 kts | 360° |
| 2026-05-06 17:18 | 39.43160 | -3.49915 | 30798 ft | 493 kts | 360° |
| 2026-05-06 17:19 | 39.46577 | -3.49571 | 30926 ft | 492 kts | 360° |
| 2026-05-06 17:19 | 39.49993 | -3.49225 | 31048 ft | 492 kts | 360° |
| 2026-05-06 17:19 | 39.53402 | -3.48881 | 31199 ft | 491 kts | 0° |
| 2026-05-06 17:19 | 39.56809 | -3.48539 | 31327 ft | 490 kts | 0° |
| 2026-05-06 17:20 | 39.60162 | -3.48203 | 31449 ft | 489 kts | 0° |
| 2026-05-06 17:20 | 39.63596 | -3.47857 | 31590 ft | 488 kts | 0° |
| 2026-05-06 17:20 | 39.66941 | -3.47521 | 31709 ft | 488 kts | 0° |
| 2026-05-06 17:20 | 39.70316 | -3.47182 | 31838 ft | 487 kts | 0° |
| 2026-05-06 17:21 | 39.73699 | -3.46844 | 31970 ft | 487 kts | 0° |
| 2026-05-06 17:21 | 39.77073 | -3.46508 | 32113 ft | 486 kts | 0° |
| 2026-05-06 17:21 | 39.80435 | -3.46092 | 32243 ft | 487 kts | 2° |
| 2026-05-06 17:21 | 39.83792 | -3.45516 | 32375 ft | 487 kts | 4° |
| 2026-05-06 17:22 | 39.87142 | -3.44819 | 32507 ft | 487 kts | 6° |
| 2026-05-06 17:22 | 39.90479 | -3.44064 | 32646 ft | 487 kts | 6° |
| 2026-05-06 17:22 | 39.93821 | -3.43304 | 32775 ft | 486 kts | 5° |
| 2026-05-06 17:22 | 39.97156 | -3.42570 | 32909 ft | 486 kts | 5° |
| 2026-05-06 17:23 | 40.00495 | -3.41871 | 33065 ft | 485 kts | 5° |
| 2026-05-06 17:23 | 40.03829 | -3.41204 | 33200 ft | 484 kts | 4° |
| 2026-05-06 17:23 | 40.07158 | -3.40554 | 33340 ft | 483 kts | 4° |
| 2026-05-06 17:23 | 40.10483 | -3.39905 | 33487 ft | 483 kts | 4° |
| 2026-05-06 17:24 | 40.13802 | -3.39251 | 33618 ft | 482 kts | 4° |
| 2026-05-06 17:24 | 40.17122 | -3.38587 | 33768 ft | 482 kts | 4° |
| 2026-05-06 17:24 | 40.20438 | -3.37915 | 33900 ft | 482 kts | 5° |
| 2026-05-06 17:25 | 40.27046 | -3.36574 | 33917 ft | 486 kts | 5° |
| 2026-05-06 17:25 | 40.33758 | -3.35217 | 33921 ft | 488 kts | 5° |
| 2026-05-06 17:26 | 40.40498 | -3.33846 | 33920 ft | 491 kts | 5° |
| 2026-05-06 17:26 | 40.47245 | -3.32463 | 33920 ft | 489 kts | 5° |
| 2026-05-06 17:27 | 40.53972 | -3.31091 | 33920 ft | 488 kts | 5° |
| 2026-05-06 17:27 | 40.60690 | -3.29729 | 33924 ft | 489 kts | 5° |
| 2026-05-06 17:28 | 40.67422 | -3.28357 | 33929 ft | 489 kts | 5° |
| 2026-05-06 17:28 | 40.74144 | -3.26975 | 33931 ft | 489 kts | 5° |
| 2026-05-06 17:29 | 40.80816 | -3.25608 | 33933 ft | 488 kts | 5° |
| 2026-05-06 17:29 | 40.87527 | -3.24229 | 33949 ft | 488 kts | 6° |
| 2026-05-06 17:30 | 40.94231 | -3.22743 | 33946 ft | 488 kts | 6° |
| 2026-05-06 17:30 | 41.00921 | -3.21210 | 33948 ft | 487 kts | 6° |
| 2026-05-06 17:31 | 41.07603 | -3.19683 | 33949 ft | 487 kts | 6° |
| 2026-05-06 17:31 | 41.14272 | -3.18190 | 33974 ft | 485 kts | 6° |
| 2026-05-06 17:32 | 41.20914 | -3.16707 | 33961 ft | 483 kts | 6° |
| 2026-05-06 17:32 | 41.27537 | -3.15209 | 33958 ft | 483 kts | 6° |
| 2026-05-06 17:33 | 41.34165 | -3.13709 | 33965 ft | 482 kts | 6° |
| 2026-05-06 17:33 | 41.40770 | -3.12215 | 33963 ft | 481 kts | 6° |
| 2026-05-06 17:34 | 41.47365 | -3.10706 | 33957 ft | 480 kts | 6° |
| 2026-05-06 17:34 | 41.53911 | -3.09212 | 33981 ft | 480 kts | 6° |
| 2026-05-06 17:35 | 41.60484 | -3.07722 | 33966 ft | 479 kts | 6° |
| 2026-05-06 17:35 | 41.67046 | -3.06232 | 33965 ft | 478 kts | 6° |
| 2026-05-06 17:36 | 41.76882 | -3.03998 | 33967 ft | 478 kts | 6° |
| 2026-05-06 17:36 | 41.83445 | -3.02497 | 33970 ft | 478 kts | 6° |
| 2026-05-06 17:37 | 41.90001 | -3.00978 | 33965 ft | 478 kts | 6° |
| 2026-05-06 17:37 | 41.96558 | -2.99454 | 33992 ft | 478 kts | 6° |
| 2026-05-06 17:38 | 42.03105 | -2.97933 | 33991 ft | 477 kts | 6° |
| 2026-05-06 17:38 | 42.09641 | -2.96419 | 33994 ft | 476 kts | 6° |
| 2026-05-06 17:39 | 42.16136 | -2.94917 | 34001 ft | 476 kts | 6° |
| 2026-05-06 17:39 | 42.22663 | -2.93394 | 34001 ft | 476 kts | 6° |
| 2026-05-06 17:40 | 42.29182 | -2.91865 | 34007 ft | 476 kts | 6° |
| 2026-05-06 17:40 | 42.35710 | -2.90336 | 34006 ft | 475 kts | 6° |
| 2026-05-06 17:41 | 42.42215 | -2.88668 | 34019 ft | 478 kts | 13° |
| 2026-05-06 17:41 | 42.45328 | -2.87018 | 34027 ft | 483 kts | 24° |
| 2026-05-06 17:41 | 42.48174 | -2.84583 | 34021 ft | 487 kts | 36° |
| 2026-05-06 17:42 | 42.53278 | -2.78514 | 34027 ft | 488 kts | 39° |
| 2026-05-06 17:42 | 42.58360 | -2.72395 | 34023 ft | 489 kts | 39° |
| 2026-05-06 17:43 | 42.63444 | -2.66258 | 34043 ft | 489 kts | 39° |
| 2026-05-06 17:43 | 42.68493 | -2.60132 | 34027 ft | 489 kts | 39° |
| 2026-05-06 17:44 | 42.73565 | -2.53970 | 34035 ft | 489 kts | 39° |
| 2026-05-06 17:44 | 42.78640 | -2.47795 | 34042 ft | 489 kts | 39° |
| 2026-05-06 17:45 | 42.83706 | -2.41610 | 34023 ft | 489 kts | 39° |
| 2026-05-06 17:45 | 42.88769 | -2.35415 | 34021 ft | 489 kts | 39° |
| 2026-05-06 17:46 | 42.93835 | -2.29219 | 34013 ft | 489 kts | 39° |
| 2026-05-06 17:46 | 42.98905 | -2.22995 | 34009 ft | 490 kts | 39° |
| 2026-05-06 17:47 | 43.03967 | -2.16751 | 34037 ft | 490 kts | 39° |
| 2026-05-06 17:47 | 43.09026 | -2.10490 | 34037 ft | 490 kts | 39° |
| 2026-05-06 17:48 | 43.14051 | -2.04271 | 34035 ft | 490 kts | 39° |
| 2026-05-06 17:48 | 43.19106 | -1.98007 | 34036 ft | 489 kts | 39° |
| 2026-05-06 17:49 | 43.24147 | -1.91741 | 34046 ft | 489 kts | 39° |
| 2026-05-06 17:49 | 43.29185 | -1.85465 | 34050 ft | 488 kts | 39° |
| 2026-05-06 17:50 | 43.33716 | -1.80989 | 34048 ft | 481 kts | 26° |
| 2026-05-06 17:50 | 43.39510 | -1.76374 | 34042 ft | 482 kts | 28° |
| 2026-05-06 17:51 | 43.46055 | -1.70522 | 34053 ft | 482 kts | 31° |
| 2026-05-06 17:51 | 43.50697 | -1.66169 | 34052 ft | 482 kts | 31° |
| 2026-05-06 17:52 | 43.56266 | -1.61029 | 34049 ft | 481 kts | 30° |
| 2026-05-06 17:52 | 43.61855 | -1.55975 | 34038 ft | 480 kts | 30° |
| 2026-05-06 17:53 | 43.67444 | -1.50927 | 34051 ft | 479 kts | 30° |
| 2026-05-06 17:53 | 43.73011 | -1.45863 | 34041 ft | 479 kts | 30° |
| 2026-05-06 17:54 | 43.78529 | -1.40822 | 34033 ft | 478 kts | 30° |
| 2026-05-06 17:54 | 43.84068 | -1.35739 | 34037 ft | 478 kts | 31° |
| 2026-05-06 17:55 | 43.89609 | -1.30653 | 34033 ft | 477 kts | 31° |
| 2026-05-06 17:55 | 43.95135 | -1.25569 | 34029 ft | 477 kts | 31° |
| 2026-05-06 17:56 | 44.00654 | -1.20471 | 34024 ft | 476 kts | 31° |
| 2026-05-06 17:56 | 44.06163 | -1.15371 | 34032 ft | 476 kts | 31° |
| 2026-05-06 17:57 | 44.11668 | -1.10277 | 34036 ft | 475 kts | 30° |
| 2026-05-06 17:57 | 44.17173 | -1.05170 | 34023 ft | 475 kts | 31° |
| 2026-05-06 17:58 | 44.22671 | -1.00056 | 34024 ft | 475 kts | 31° |
| 2026-05-06 17:58 | 44.28164 | -0.94932 | 34022 ft | 475 kts | 31° |
| 2026-05-06 17:59 | 44.33644 | -0.89804 | 34011 ft | 474 kts | 31° |
| 2026-05-06 17:59 | 44.39127 | -0.84691 | 34004 ft | 473 kts | 28° |
| 2026-05-06 18:00 | 44.44678 | -0.81037 | 34017 ft | 468 kts | 20° |
| 2026-05-06 18:00 | 44.50644 | -0.77411 | 34012 ft | 467 kts | 20° |
| 2026-05-06 18:01 | 44.56604 | -0.73768 | 34000 ft | 467 kts | 20° |
| 2026-05-06 18:01 | 44.62561 | -0.70129 | 33999 ft | 467 kts | 20° |
| 2026-05-06 18:02 | 44.68476 | -0.66504 | 33992 ft | 467 kts | 21° |
| 2026-05-06 18:02 | 44.74418 | -0.62846 | 33991 ft | 466 kts | 21° |
| 2026-05-06 18:03 | 44.80362 | -0.59182 | 33985 ft | 466 kts | 21° |
| 2026-05-06 18:03 | 44.86295 | -0.55513 | 33980 ft | 465 kts | 21° |
| 2026-05-06 18:04 | 44.92223 | -0.51847 | 33976 ft | 465 kts | 20° |
| 2026-05-06 18:04 | 44.98151 | -0.48185 | 33971 ft | 465 kts | 21° |
| 2026-05-06 18:05 | 45.04072 | -0.44495 | 33970 ft | 465 kts | 21° |
| 2026-05-06 18:05 | 45.09989 | -0.40780 | 33963 ft | 464 kts | 21° |
| 2026-05-06 18:06 | 45.15896 | -0.37085 | 33960 ft | 464 kts | 21° |
| 2026-05-06 18:06 | 45.21810 | -0.33385 | 33973 ft | 464 kts | 21° |
| 2026-05-06 18:07 | 45.27720 | -0.29683 | 33966 ft | 464 kts | 21° |
| 2026-05-06 18:07 | 45.33626 | -0.25977 | 33965 ft | 464 kts | 21° |
| 2026-05-06 18:08 | 45.39525 | -0.22263 | 33974 ft | 464 kts | 21° |
| 2026-05-06 18:08 | 45.45420 | -0.18528 | 33980 ft | 463 kts | 21° |
| 2026-05-06 18:09 | 45.51307 | -0.14795 | 33982 ft | 463 kts | 21° |
| 2026-05-06 18:09 | 45.57194 | -0.11058 | 33979 ft | 463 kts | 21° |
| 2026-05-06 18:10 | 45.63077 | -0.07315 | 33985 ft | 463 kts | 22° |
| 2026-05-06 18:10 | 45.68955 | -0.03567 | 33966 ft | 462 kts | 22° |
| 2026-05-06 18:11 | 45.74823 | 0.00181 | 33961 ft | 462 kts | 22° |
| 2026-05-06 18:11 | 45.80686 | 0.03941 | 33955 ft | 462 kts | 22° |
| 2026-05-06 18:12 | 45.86549 | 0.07719 | 33951 ft | 462 kts | 22° |
| 2026-05-06 18:12 | 45.92418 | 0.11499 | 33953 ft | 462 kts | 22° |
| 2026-05-06 18:13 | 45.98248 | 0.15249 | 33957 ft | 462 kts | 22° |
| 2026-05-06 18:13 | 46.04114 | 0.19038 | 33952 ft | 462 kts | 22° |
| 2026-05-06 18:14 | 46.09971 | 0.22838 | 33949 ft | 462 kts | 22° |
| 2026-05-06 18:14 | 46.15837 | 0.26652 | 33951 ft | 462 kts | 22° |
| 2026-05-06 18:15 | 46.21692 | 0.30472 | 33953 ft | 462 kts | 22° |
| 2026-05-06 18:15 | 46.27553 | 0.34299 | 33953 ft | 462 kts | 22° |
| 2026-05-06 18:16 | 46.33419 | 0.38131 | 33957 ft | 462 kts | 22° |
| 2026-05-06 18:16 | 46.39282 | 0.41975 | 33966 ft | 462 kts | 22° |
| 2026-05-06 18:17 | 46.45143 | 0.45830 | 33972 ft | 463 kts | 22° |
| 2026-05-06 18:17 | 46.50974 | 0.49669 | 33970 ft | 463 kts | 22° |
| 2026-05-06 18:18 | 46.56915 | 0.53297 | 33966 ft | 461 kts | 14° |
| 2026-05-06 18:18 | 46.63157 | 0.55403 | 33968 ft | 460 kts | 11° |
| 2026-05-06 18:19 | 46.69419 | 0.57461 | 33966 ft | 460 kts | 11° |
| 2026-05-06 18:19 | 46.75663 | 0.59514 | 33960 ft | 460 kts | 11° |
| 2026-05-06 18:20 | 46.81905 | 0.61582 | 33956 ft | 460 kts | 11° |
| 2026-05-06 18:20 | 46.88144 | 0.63657 | 33951 ft | 460 kts | 11° |
| 2026-05-06 18:21 | 46.94351 | 0.65730 | 33950 ft | 460 kts | 11° |
| 2026-05-06 18:21 | 47.00591 | 0.67814 | 33949 ft | 460 kts | 11° |
| 2026-05-06 18:22 | 47.06615 | 0.70886 | 33948 ft | 462 kts | 28° |
| 2026-05-06 18:22 | 47.12130 | 0.75765 | 33950 ft | 463 kts | 30° |
| 2026-05-06 18:23 | 47.17627 | 0.80682 | 33954 ft | 463 kts | 30° |
| 2026-05-06 18:23 | 47.23137 | 0.85599 | 33958 ft | 464 kts | 30° |
| 2026-05-06 18:24 | 47.28621 | 0.90504 | 33955 ft | 465 kts | 30° |
| 2026-05-06 18:24 | 47.34151 | 0.95467 | 33937 ft | 465 kts | 30° |
| 2026-05-06 18:25 | 47.39679 | 1.00452 | 33939 ft | 466 kts | 30° |
| 2026-05-06 18:25 | 47.45211 | 1.05457 | 33937 ft | 466 kts | 30° |
| 2026-05-06 18:26 | 47.50746 | 1.10458 | 33944 ft | 466 kts | 29° |
| 2026-05-06 18:26 | 47.56394 | 1.15130 | 33939 ft | 465 kts | 26° |
| 2026-05-06 18:27 | 47.62115 | 1.19446 | 33942 ft | 459 kts | 25° |
| 2026-05-06 18:27 | 47.64905 | 1.21549 | 33937 ft | 440 kts | 26° |
| 2026-05-06 18:27 | 47.67572 | 1.23596 | 33941 ft | 425 kts | 26° |
| 2026-05-06 18:28 | 47.72751 | 1.27653 | 33948 ft | 419 kts | 26° |
| 2026-05-06 18:28 | 47.77898 | 1.31731 | 33942 ft | 419 kts | 27° |
| 2026-05-06 18:29 | 47.83011 | 1.35780 | 33939 ft | 419 kts | 27° |
| 2026-05-06 18:29 | 47.88161 | 1.39854 | 33938 ft | 419 kts | 26° |
| 2026-05-06 18:30 | 47.93310 | 1.43919 | 33944 ft | 419 kts | 27° |
| 2026-05-06 18:30 | 47.98454 | 1.48014 | 33940 ft | 419 kts | 27° |
| 2026-05-06 18:31 | 48.03562 | 1.52084 | 33947 ft | 418 kts | 27° |
| 2026-05-06 18:31 | 48.08698 | 1.56175 | 33942 ft | 418 kts | 27° |
| 2026-05-06 18:32 | 48.13830 | 1.60280 | 33938 ft | 418 kts | 27° |
| 2026-05-06 18:32 | 48.18963 | 1.64384 | 33938 ft | 418 kts | 27° |
| 2026-05-06 18:33 | 48.24097 | 1.68500 | 33941 ft | 418 kts | 27° |
| 2026-05-06 18:33 | 48.29222 | 1.72621 | 33949 ft | 418 kts | 27° |
| 2026-05-06 18:34 | 48.34339 | 1.76757 | 33648 ft | 418 kts | 26° |
| 2026-05-06 18:34 | 48.36898 | 1.78831 | 32958 ft | 418 kts | 27° |
| 2026-05-06 18:34 | 48.39457 | 1.80905 | 32290 ft | 417 kts | 27° |
| 2026-05-06 18:35 | 48.42007 | 1.82971 | 31644 ft | 416 kts | 27° |
| 2026-05-06 18:35 | 48.44557 | 1.85038 | 30987 ft | 416 kts | 27° |
| 2026-05-06 18:35 | 48.47102 | 1.87104 | 30356 ft | 415 kts | 27° |
| 2026-05-06 18:35 | 48.49640 | 1.89167 | 29642 ft | 415 kts | 27° |
| 2026-05-06 18:36 | 48.52181 | 1.91237 | 28812 ft | 416 kts | 27° |
| 2026-05-06 18:36 | 48.54732 | 1.93315 | 28135 ft | 416 kts | 27° |
| 2026-05-06 18:36 | 48.57286 | 1.95397 | 27926 ft | 419 kts | 27° |
| 2026-05-06 18:36 | 48.59854 | 1.97491 | 27950 ft | 420 kts | 28° |
| 2026-05-06 18:37 | 48.62391 | 1.99562 | 27949 ft | 420 kts | 27° |
| 2026-05-06 18:37 | 48.64127 | 2.00983 | 27949 ft | 420 kts | 27° |
| 2026-05-06 18:37 | 48.67535 | 2.03780 | 27948 ft | 421 kts | 27° |
| 2026-05-06 18:37 | 48.70027 | 2.06083 | 27897 ft | 419 kts | 35° |
| 2026-05-06 18:38 | 48.72280 | 2.08871 | 27130 ft | 420 kts | 43° |
| 2026-05-06 18:38 | 48.74253 | 2.12150 | 26334 ft | 423 kts | 51° |
| 2026-05-06 18:38 | 48.75877 | 2.15876 | 26031 ft | 427 kts | 60° |
| 2026-05-06 18:38 | 48.77094 | 2.19991 | 25914 ft | 431 kts | 71° |
| 2026-05-06 18:39 | 48.77940 | 2.24382 | 25948 ft | 435 kts | 74° |
| 2026-05-06 18:39 | 48.78743 | 2.28816 | 25950 ft | 436 kts | 74° |
| 2026-05-06 18:39 | 48.79537 | 2.33254 | 25947 ft | 437 kts | 74° |
| 2026-05-06 18:40 | 48.81120 | 2.42155 | 25949 ft | 437 kts | 75° |
| 2026-05-06 18:40 | 48.81653 | 2.45159 | 25948 ft | 437 kts | 75° |
| 2026-05-06 18:40 | 48.82433 | 2.49553 | 25947 ft | 437 kts | 75° |
| 2026-05-06 18:40 | 48.83228 | 2.54006 | 25968 ft | 437 kts | 75° |
| 2026-05-06 18:41 | 48.84021 | 2.58457 | 25965 ft | 437 kts | 75° |
| 2026-05-06 18:41 | 48.84810 | 2.62907 | 25948 ft | 437 kts | 75° |
| 2026-05-06 18:41 | 48.85595 | 2.67377 | 25949 ft | 440 kts | 76° |
| 2026-05-06 18:41 | 48.86382 | 2.71879 | 25946 ft | 441 kts | 76° |
| 2026-05-06 18:42 | 48.87169 | 2.76383 | 25945 ft | 442 kts | 76° |
| 2026-05-06 18:42 | 48.87956 | 2.80892 | 25947 ft | 442 kts | 76° |
| 2026-05-06 18:42 | 48.88741 | 2.85404 | 25944 ft | 442 kts | 76° |
| 2026-05-06 18:42 | 48.89526 | 2.89918 | 25944 ft | 442 kts | 76° |
| 2026-05-06 18:43 | 48.90309 | 2.94425 | 25946 ft | 442 kts | 76° |
| 2026-05-06 18:43 | 48.91095 | 2.98947 | 25942 ft | 442 kts | 76° |
| 2026-05-06 18:43 | 48.91875 | 3.03448 | 25940 ft | 442 kts | 76° |
| 2026-05-06 18:43 | 48.92656 | 3.07966 | 25935 ft | 442 kts | 76° |
| 2026-05-06 18:44 | 48.93432 | 3.12482 | 25940 ft | 442 kts | 76° |
| 2026-05-06 18:44 | 48.94203 | 3.16996 | 25939 ft | 441 kts | 76° |
| 2026-05-06 18:44 | 48.94974 | 3.21525 | 25939 ft | 441 kts | 76° |
| 2026-05-06 18:44 | 48.95741 | 3.26041 | 25941 ft | 442 kts | 76° |
| 2026-05-06 18:45 | 48.96510 | 3.30568 | 25944 ft | 441 kts | 76° |
| 2026-05-06 18:45 | 48.97276 | 3.35088 | 25938 ft | 441 kts | 76° |
| 2026-05-06 18:45 | 48.98041 | 3.39609 | 25938 ft | 441 kts | 76° |
| 2026-05-06 18:45 | 48.98807 | 3.44142 | 25939 ft | 441 kts | 76° |
| 2026-05-06 18:46 | 48.99567 | 3.48663 | 25938 ft | 441 kts | 76° |
| 2026-05-06 18:46 | 49.00326 | 3.53193 | 25936 ft | 441 kts | 76° |
| 2026-05-06 18:46 | 49.01078 | 3.57703 | 25936 ft | 439 kts | 76° |
| 2026-05-06 18:46 | 49.01829 | 3.62219 | 25936 ft | 438 kts | 76° |
| 2026-05-06 18:47 | 49.02578 | 3.66722 | 25936 ft | 439 kts | 76° |
| 2026-05-06 18:47 | 49.03328 | 3.71245 | 25933 ft | 440 kts | 76° |
| 2026-05-06 18:47 | 49.04076 | 3.75768 | 25931 ft | 441 kts | 76° |
| 2026-05-06 18:47 | 49.04824 | 3.80299 | 25929 ft | 441 kts | 76° |
| 2026-05-06 18:48 | 49.05565 | 3.84782 | 25930 ft | 441 kts | 76° |
| 2026-05-06 18:48 | 49.06314 | 3.89317 | 25925 ft | 441 kts | 76° |
| 2026-05-06 18:48 | 49.07055 | 3.93855 | 25922 ft | 441 kts | 76° |
| 2026-05-06 18:48 | 49.07794 | 3.98401 | 25924 ft | 441 kts | 76° |
| 2026-05-06 18:49 | 49.08531 | 4.02935 | 25920 ft | 441 kts | 76° |
| 2026-05-06 18:49 | 49.09269 | 4.07480 | 25921 ft | 441 kts | 76° |
| 2026-05-06 18:49 | 49.10003 | 4.12024 | 25919 ft | 441 kts | 77° |
| 2026-05-06 18:49 | 49.10736 | 4.16573 | 25921 ft | 441 kts | 77° |
| 2026-05-06 18:50 | 49.11470 | 4.21123 | 25921 ft | 441 kts | 76° |
| 2026-05-06 18:50 | 49.12203 | 4.25662 | 25922 ft | 441 kts | 76° |
| 2026-05-06 18:50 | 49.12932 | 4.30211 | 25920 ft | 441 kts | 77° |
| 2026-05-06 18:50 | 49.13671 | 4.34752 | 25921 ft | 441 kts | 74° |
| 2026-05-06 18:51 | 49.14698 | 4.39164 | 25922 ft | 441 kts | 68° |
| 2026-05-06 18:51 | 49.15881 | 4.43490 | 25918 ft | 441 kts | 67° |
| 2026-05-06 18:51 | 49.17060 | 4.47809 | 25921 ft | 439 kts | 67° |
| 2026-05-06 18:51 | 49.18233 | 4.52118 | 25920 ft | 439 kts | 67° |
| 2026-05-06 18:52 | 49.19400 | 4.56428 | 25920 ft | 439 kts | 67° |
| 2026-05-06 18:52 | 49.20564 | 4.60741 | 25921 ft | 439 kts | 68° |
| 2026-05-06 18:52 | 49.21724 | 4.65061 | 25919 ft | 440 kts | 68° |
| 2026-05-06 18:52 | 49.22886 | 4.69402 | 25920 ft | 442 kts | 68° |
| 2026-05-06 18:53 | 49.24049 | 4.73757 | 25919 ft | 443 kts | 68° |
| 2026-05-06 18:53 | 49.25216 | 4.78127 | 25918 ft | 443 kts | 68° |
| 2026-05-06 18:53 | 49.26368 | 4.82438 | 25915 ft | 443 kts | 68° |
| 2026-05-06 18:53 | 49.27551 | 4.86863 | 25915 ft | 443 kts | 68° |
| 2026-05-06 18:54 | 49.28704 | 4.91171 | 25919 ft | 442 kts | 67° |
| 2026-05-06 18:54 | 49.30207 | 4.95249 | 25915 ft | 441 kts | 53° |
| 2026-05-06 18:54 | 49.32348 | 4.98587 | 25918 ft | 441 kts | 37° |
| 2026-05-06 18:54 | 49.34851 | 5.01322 | 25914 ft | 441 kts | 35° |
| 2026-05-06 18:55 | 49.37375 | 5.03999 | 25910 ft | 441 kts | 34° |
| 2026-05-06 18:55 | 49.39905 | 5.06659 | 25911 ft | 441 kts | 34° |
| 2026-05-06 18:55 | 49.42442 | 5.09326 | 25908 ft | 442 kts | 34° |
| 2026-05-06 18:55 | 49.44986 | 5.12013 | 25909 ft | 443 kts | 34° |
| 2026-05-06 18:56 | 49.47524 | 5.14712 | 25910 ft | 443 kts | 34° |
| 2026-05-06 18:56 | 49.50059 | 5.17420 | 25910 ft | 443 kts | 34° |
| 2026-05-06 18:56 | 49.52589 | 5.20132 | 25907 ft | 443 kts | 35° |
| 2026-05-06 18:56 | 49.55126 | 5.22854 | 25906 ft | 444 kts | 34° |
| 2026-05-06 18:57 | 49.57658 | 5.25564 | 25908 ft | 444 kts | 34° |
| 2026-05-06 18:57 | 49.60188 | 5.28285 | 25909 ft | 444 kts | 35° |
| 2026-05-06 18:57 | 49.62720 | 5.31009 | 25912 ft | 444 kts | 34° |
| 2026-05-06 18:57 | 49.65263 | 5.33740 | 25909 ft | 446 kts | 34° |
| 2026-05-06 18:58 | 49.67815 | 5.36482 | 25909 ft | 447 kts | 34° |
| 2026-05-06 18:58 | 49.70364 | 5.39236 | 25909 ft | 447 kts | 34° |
| 2026-05-06 18:58 | 49.72908 | 5.41993 | 25902 ft | 447 kts | 35° |
| 2026-05-06 18:58 | 49.75418 | 5.44717 | 25906 ft | 446 kts | 35° |
| 2026-05-06 18:59 | 49.77961 | 5.47480 | 25906 ft | 445 kts | 35° |
| 2026-05-06 18:59 | 49.80492 | 5.50227 | 25906 ft | 445 kts | 35° |
| 2026-05-06 18:59 | 49.83028 | 5.52973 | 25906 ft | 445 kts | 35° |
| 2026-05-06 18:59 | 49.85568 | 5.55730 | 25908 ft | 446 kts | 34° |
| 2026-05-06 19:00 | 49.88108 | 5.58496 | 25906 ft | 447 kts | 34° |
| 2026-05-06 19:00 | 49.90651 | 5.61267 | 25910 ft | 447 kts | 34° |
| 2026-05-06 19:00 | 49.93203 | 5.64051 | 25910 ft | 448 kts | 34° |
| 2026-05-06 19:00 | 49.95756 | 5.66846 | 25909 ft | 448 kts | 34° |
| 2026-05-06 19:01 | 49.98306 | 5.69635 | 25908 ft | 448 kts | 34° |
| 2026-05-06 19:01 | 50.00856 | 5.72420 | 25906 ft | 448 kts | 34° |
| 2026-05-06 19:01 | 50.03371 | 5.75172 | 25905 ft | 448 kts | 34° |
| 2026-05-06 19:01 | 50.05923 | 5.77976 | 25908 ft | 447 kts | 35° |
| 2026-05-06 19:02 | 50.08461 | 5.80767 | 25905 ft | 446 kts | 35° |
| 2026-05-06 19:02 | 50.10989 | 5.83554 | 25906 ft | 446 kts | 35° |
| 2026-05-06 19:02 | 50.13519 | 5.86353 | 25906 ft | 446 kts | 35° |
| 2026-05-06 19:02 | 50.16044 | 5.89146 | 25902 ft | 446 kts | 35° |
| 2026-05-06 19:03 | 50.18579 | 5.91948 | 25904 ft | 445 kts | 35° |
| 2026-05-06 19:03 | 50.21111 | 5.94754 | 25904 ft | 446 kts | 35° |
| 2026-05-06 19:03 | 50.23637 | 5.97559 | 25904 ft | 446 kts | 35° |
| 2026-05-06 19:03 | 50.26167 | 6.00372 | 25902 ft | 446 kts | 35° |
| 2026-05-06 19:04 | 50.28699 | 6.03190 | 25905 ft | 447 kts | 35° |
| 2026-05-06 19:04 | 50.31229 | 6.06010 | 25905 ft | 447 kts | 35° |
| 2026-05-06 19:04 | 50.33731 | 6.08799 | 25907 ft | 447 kts | 35° |
| 2026-05-06 19:04 | 50.36259 | 6.11618 | 25898 ft | 447 kts | 35° |
| 2026-05-06 19:05 | 50.38793 | 6.14449 | 25897 ft | 447 kts | 35° |
| 2026-05-06 19:05 | 50.41321 | 6.17279 | 25894 ft | 447 kts | 35° |
| 2026-05-06 19:05 | 50.43849 | 6.20113 | 25896 ft | 447 kts | 35° |
| 2026-05-06 19:05 | 50.46378 | 6.22950 | 25894 ft | 447 kts | 35° |
| 2026-05-06 19:06 | 50.48906 | 6.25787 | 25896 ft | 446 kts | 36° |
| 2026-05-06 19:06 | 50.51424 | 6.28624 | 25895 ft | 445 kts | 37° |
| 2026-05-06 19:06 | 50.53936 | 6.31459 | 25892 ft | 444 kts | 36° |
| 2026-05-06 19:06 | 50.56446 | 6.34289 | 25890 ft | 444 kts | 36° |
| 2026-05-06 19:07 | 50.58956 | 6.37123 | 25889 ft | 444 kts | 36° |
| 2026-05-06 19:07 | 50.61461 | 6.39957 | 25899 ft | 444 kts | 36° |
| 2026-05-06 19:07 | 50.63966 | 6.42800 | 25900 ft | 444 kts | 36° |
| 2026-05-06 19:07 | 50.66476 | 6.45652 | 25898 ft | 444 kts | 36° |
| 2026-05-06 19:08 | 50.68985 | 6.48505 | 25897 ft | 444 kts | 36° |
| 2026-05-06 19:08 | 50.71486 | 6.51350 | 25905 ft | 444 kts | 36° |
| 2026-05-06 19:08 | 50.73963 | 6.54166 | 25869 ft | 428 kts | 36° |
| 2026-05-06 19:08 | 50.76306 | 6.56829 | 25597 ft | 404 kts | 35° |
| 2026-05-06 19:09 | 50.78558 | 6.59394 | 24960 ft | 395 kts | 36° |
| 2026-05-06 19:09 | 50.80787 | 6.61849 | 24240 ft | 387 kts | 29° |
| 2026-05-06 19:09 | 50.83218 | 6.63584 | 23503 ft | 381 kts | 15° |
| 2026-05-06 19:09 | 50.85795 | 6.64412 | 22672 ft | 376 kts | 6° |
| 2026-05-06 19:10 | 50.88367 | 6.64943 | 21858 ft | 371 kts | 6° |
| 2026-05-06 19:10 | 50.90910 | 6.65480 | 21056 ft | 367 kts | 7° |
| 2026-05-06 19:10 | 50.93395 | 6.66019 | 20302 ft | 362 kts | 7° |
| 2026-05-06 19:10 | 50.95866 | 6.66933 | 19544 ft | 360 kts | 22° |
| 2026-05-06 19:11 | 50.97954 | 6.69057 | 18858 ft | 357 kts | 44° |
| 2026-05-06 19:11 | 50.99387 | 6.72170 | 18151 ft | 355 kts | 65° |
| 2026-05-06 19:11 | 51.00011 | 6.75975 | 17338 ft | 352 kts | 88° |
| 2026-05-06 19:11 | 50.99710 | 6.79735 | 16623 ft | 347 kts | 109° |
| 2026-05-06 19:12 | 50.98551 | 6.83052 | 15871 ft | 344 kts | 131° |
| 2026-05-06 19:12 | 50.96711 | 6.85393 | 15153 ft | 339 kts | 154° |
| 2026-05-06 19:12 | 50.94476 | 6.86430 | 14454 ft | 335 kts | 177° |
| 2026-05-06 19:12 | 50.92151 | 6.86462 | 13695 ft | 334 kts | 182° |
| 2026-05-06 19:13 | 50.89829 | 6.86326 | 12897 ft | 333 kts | 184° |
| 2026-05-06 19:13 | 50.87582 | 6.85629 | 12164 ft | 328 kts | 205° |
| 2026-05-06 19:13 | 50.85715 | 6.83655 | 11430 ft | 322 kts | 229° |
| 2026-05-06 19:13 | 50.84537 | 6.80700 | 10803 ft | 318 kts | 254° |
| 2026-05-06 19:14 | 50.84250 | 6.77304 | 10361 ft | 310 kts | 279° |
| 2026-05-06 19:14 | 50.84887 | 6.74177 | 10172 ft | 292 kts | 306° |
| 2026-05-06 19:14 | 50.86233 | 6.71941 | 9999 ft | 276 kts | 329° |
| 2026-05-06 19:14 | 50.87868 | 6.70360 | 9875 ft | 275 kts | 333° |
| 2026-05-06 19:15 | 50.89533 | 6.68857 | 9891 ft | 275 kts | 333° |
| 2026-05-06 19:15 | 50.91201 | 6.67364 | 9894 ft | 276 kts | 333° |
| 2026-05-06 19:15 | 50.92875 | 6.65868 | 9894 ft | 276 kts | 333° |
| 2026-05-06 19:15 | 50.94546 | 6.64375 | 9892 ft | 276 kts | 333° |
| 2026-05-06 19:16 | 50.96223 | 6.62877 | 9895 ft | 276 kts | 333° |
| 2026-05-06 19:16 | 50.97895 | 6.61384 | 9897 ft | 276 kts | 333° |
| 2026-05-06 19:16 | 50.99571 | 6.59932 | 9895 ft | 280 kts | 333° |
| 2026-05-06 19:16 | 51.01296 | 6.58479 | 9898 ft | 281 kts | 333° |
| 2026-05-06 19:17 | 51.03026 | 6.57027 | 9899 ft | 281 kts | 333° |
| 2026-05-06 19:17 | 51.04757 | 6.55577 | 9916 ft | 281 kts | 333° |
| 2026-05-06 19:17 | 51.06490 | 6.54124 | 9917 ft | 281 kts | 333° |
| 2026-05-06 19:17 | 51.08217 | 6.52674 | 9917 ft | 281 kts | 333° |
| 2026-05-06 19:18 | 51.09950 | 6.51221 | 9916 ft | 281 kts | 333° |
| 2026-05-06 19:18 | 51.11679 | 6.49769 | 9919 ft | 281 kts | 333° |
| 2026-05-06 19:18 | 51.13414 | 6.48310 | 9920 ft | 281 kts | 333° |
| 2026-05-06 19:18 | 51.15143 | 6.46857 | 9920 ft | 281 kts | 333° |
| 2026-05-06 19:19 | 51.16870 | 6.45406 | 9922 ft | 279 kts | 333° |
| 2026-05-06 19:19 | 51.18584 | 6.43971 | 9920 ft | 278 kts | 333° |
| 2026-05-06 19:19 | 51.20300 | 6.42537 | 9921 ft | 278 kts | 333° |
| 2026-05-06 19:19 | 51.22010 | 6.41107 | 9920 ft | 278 kts | 333° |
| 2026-05-06 19:20 | 51.23723 | 6.39672 | 9921 ft | 278 kts | 333° |
| 2026-05-06 19:20 | 51.25522 | 6.38618 | 9916 ft | 276 kts | 354° |
| 2026-05-06 19:20 | 51.27409 | 6.38937 | 9920 ft | 276 kts | 20° |
| 2026-05-06 19:20 | 51.29006 | 6.40630 | 9922 ft | 279 kts | 46° |
| 2026-05-06 19:21 | 51.30206 | 6.43088 | 9922 ft | 281 kts | 52° |
| 2026-05-06 19:21 | 51.31332 | 6.45647 | 9920 ft | 282 kts | 53° |
| 2026-05-06 19:21 | 51.32451 | 6.48221 | 9921 ft | 282 kts | 53° |
| 2026-05-06 19:21 | 51.33568 | 6.50798 | 9910 ft | 282 kts | 53° |
| 2026-05-06 19:22 | 51.34685 | 6.53379 | 9913 ft | 282 kts | 53° |
| 2026-05-06 19:22 | 51.35800 | 6.55959 | 9913 ft | 282 kts | 53° |
| 2026-05-06 19:22 | 51.36966 | 6.58468 | 9907 ft | 280 kts | 43° |
| 2026-05-06 19:22 | 51.38565 | 6.60141 | 9665 ft | 274 kts | 17° |
| 2026-05-06 19:23 | 51.40430 | 6.60446 | 9261 ft | 271 kts | 351° |
| 2026-05-06 19:23 | 51.42199 | 6.59445 | 8842 ft | 271 kts | 335° |
| 2026-05-06 19:23 | 51.43881 | 6.58072 | 8437 ft | 270 kts | 333° |
| 2026-05-06 19:23 | 51.45499 | 6.56632 | 8053 ft | 269 kts | 326° |
| 2026-05-06 19:24 | 51.46733 | 6.54347 | 7668 ft | 272 kts | 298° |
| 2026-05-06 19:24 | 51.47148 | 6.51402 | 7279 ft | 276 kts | 270° |
| 2026-05-06 19:24 | 51.46660 | 6.48470 | 6953 ft | 280 kts | 242° |
| 2026-05-06 19:24 | 51.45536 | 6.45885 | 6912 ft | 285 kts | 234° |
| 2026-05-06 19:25 | 51.44279 | 6.43421 | 6911 ft | 287 kts | 225° |
| 2026-05-06 19:25 | 51.42585 | 6.41765 | 6921 ft | 288 kts | 197° |
| 2026-05-06 19:25 | 51.40605 | 6.41237 | 6923 ft | 289 kts | 185° |
| 2026-05-06 19:25 | 51.39275 | 6.41067 | 6914 ft | 289 kts | 184° |
| 2026-05-06 19:26 | 51.37263 | 6.40865 | 6917 ft | 290 kts | 183° |
| 2026-05-06 19:26 | 51.35252 | 6.40675 | 6877 ft | 288 kts | 183° |
| 2026-05-06 19:26 | 51.33255 | 6.40489 | 6505 ft | 286 kts | 183° |
| 2026-05-06 19:26 | 51.31341 | 6.40312 | 6371 ft | 265 kts | 183° |
| 2026-05-06 19:27 | 51.29545 | 6.40145 | 6014 ft | 255 kts | 183° |
| 2026-05-06 19:27 | 51.27793 | 6.39976 | 5496 ft | 251 kts | 183° |
| 2026-05-06 19:27 | 51.26062 | 6.39796 | 5062 ft | 246 kts | 183° |
| 2026-05-06 19:27 | 51.24350 | 6.39608 | 4989 ft | 247 kts | 183° |
| 2026-05-06 19:28 | 51.22629 | 6.39415 | 5003 ft | 248 kts | 183° |
| 2026-05-06 19:28 | 51.20907 | 6.39223 | 5007 ft | 248 kts | 183° |
| 2026-05-06 19:28 | 51.19182 | 6.39032 | 5008 ft | 248 kts | 183° |
| 2026-05-06 19:28 | 51.17479 | 6.38843 | 4983 ft | 238 kts | 183° |
| 2026-05-06 19:29 | 51.15878 | 6.38894 | 4734 ft | 225 kts | 163° |
| 2026-05-06 19:29 | 51.14552 | 6.40074 | 4312 ft | 218 kts | 132° |
| 2026-05-06 19:29 | 51.13769 | 6.42062 | 4017 ft | 210 kts | 103° |
| 2026-05-06 19:29 | 51.13655 | 6.44351 | 4045 ft | 209 kts | 78° |
| 2026-05-06 19:30 | 51.14169 | 6.46462 | 3941 ft | 203 kts | 53° |
| 2026-05-06 19:30 | 51.15008 | 6.48240 | 3647 ft | 198 kts | 49° |
| 2026-05-06 19:30 | 51.15849 | 6.49956 | 3249 ft | 195 kts | 50° |
| 2026-05-06 19:30 | 51.16674 | 6.51660 | 3018 ft | 192 kts | 50° |
| 2026-05-06 19:31 | 51.17488 | 6.53348 | 3007 ft | 192 kts | 51° |
| 2026-05-06 19:31 | 51.18295 | 6.55023 | 3008 ft | 192 kts | 51° |
| 2026-05-06 19:31 | 51.19809 | 6.58176 | 2847 ft | 170 kts | 51° |
| 2026-05-06 19:32 | 51.20522 | 6.59659 | 2649 ft | 167 kts | 50° |
| 2026-05-06 19:32 | 51.21226 | 6.61126 | 2431 ft | 167 kts | 50° |
| 2026-05-06 19:32 | 51.21929 | 6.62591 | 2216 ft | 165 kts | 51° |
| 2026-05-06 19:32 | 51.22622 | 6.64036 | 1991 ft | 163 kts | 50° |
| 2026-05-06 19:33 | 51.23309 | 6.65471 | 1771 ft | 162 kts | 50° |
| 2026-05-06 19:33 | 51.23995 | 6.66902 | 1534 ft | 163 kts | 50° |
| 2026-05-06 19:33 | 51.24666 | 6.68307 | 1319 ft | 152 kts | 49° |
| 2026-05-06 19:33 | 51.25280 | 6.69591 | 1109 ft | 141 kts | 49° |
| 2026-05-06 19:34 | 51.25869 | 6.70822 | 903 ft | 138 kts | 49° |
| 2026-05-06 19:34 | 51.26445 | 6.72027 | 726 ft | 136 kts | 49° |
| 2026-05-06 19:34 | 51.27018 | 6.73226 | 533 ft | 137 kts | 50° |
| 2026-05-06 19:34 | 51.27587 | 6.74427 | 313 ft | 134 kts | 50° |
| 2026-05-06 19:35 | 51.28157 | 6.75607 | 161 ft | 134 kts | 49° |
| 2026-05-06 19:35 | 51.28666 | 6.76672 | 127 ft | 86 kts | 53° |
| 2026-05-06 19:35 | 51.28948 | 6.77256 | 125 ft | 55 kts | 55° |
| 2026-05-06 19:35 | 51.28988 | 6.77587 | 132 ft | 24 kts | 139° |
| 2026-05-06 19:36 | 51.28961 | 6.77622 | 132 ft | 0 kts | 145° |
| 2026-05-06 19:39 | 51.28950 | 6.77635 | 132 ft | 6 kts | 141° |
| 2026-05-06 19:39 | 51.28915 | 6.77680 | 131 ft | 7 kts | 141° |
| 2026-05-06 19:39 | 51.28874 | 6.77731 | 128 ft | 8 kts | 143° |
| 2026-05-06 19:39 | 51.28826 | 6.77784 | 129 ft | 7 kts | 150° |
| 2026-05-06 19:40 | 51.28791 | 6.77830 | 127 ft | 6 kts | 142° |
| 2026-05-06 19:40 | 51.28772 | 6.77853 | 129 ft | 0 kts | 142° |
| 2026-05-06 19:40 | 51.28771 | 6.77854 | 129 ft | 2 kts | 142° |
| 2026-05-06 19:41 | 51.28728 | 6.77850 | 126 ft | 8 kts | 208° |
| 2026-05-06 19:41 | 51.28695 | 6.77793 | 126 ft | 7 kts | 235° |
| 2026-05-06 19:41 | 51.28669 | 6.77734 | 127 ft | 6 kts | 236° |
| 2026-05-06 19:41 | 51.28663 | 6.77680 | 124 ft | 4 kts | 277° |
| 2026-05-06 19:42 | 51.28663 | 6.77621 | 124 ft | 5 kts | 255° |
| 2026-05-06 19:42 | 51.28648 | 6.77581 | 127 ft | 3 kts | 234° |
| 2026-05-06 19:42 | 51.28618 | 6.77526 | 127 ft | 14 kts | 232° |
| 2026-05-06 19:42 | 51.28589 | 6.77454 | 127 ft | 0 kts | 234° |
| 2026-05-06 19:43 | 51.28584 | 6.77443 | 127 ft | 7 kts | 234° |
| 2026-05-06 19:43 | 51.28564 | 6.77399 | 127 ft | 0 kts | 233° |
| 2026-05-06 19:43 | 51.28563 | 6.77397 | 127 ft | 2 kts | 232° |
| 2026-05-06 19:43 | 51.28510 | 6.77441 | 129 ft | 10 kts | 140° |
| 2026-05-06 19:44 | 51.28499 | 6.77455 | 129 ft | 0 kts | 140° |